sensor_id;sensor_type;location;lat;lon;timestamp;P1;durP1;ratioP1;P2;durP2;ratioP2
12900;SDS011;6518;50.930;5.344;2023-04-01T00:01:11;3.07;;;0.97;;
12900;SDS011;6518;50.930;5.344;2023-04-01T00:03:40;2.93;;;1.50;;
12900;SDS011;6518;50.930;5.344;2023-04-01T00:06:06;2.87;;;1.00;;
12900;SDS011;6518;50.930;5.344;2023-04-01T00:08:33;2.87;;;1.10;;
12900;SDS011;6518;50.930;5.344;2023-04-01T00:11:00;3.30;;;1.00;;
12900;SDS011;6518;50.930;5.344;2023-04-01T00:13:28;2.53;;;0.80;;
12900;SDS011;6518;50.930;5.344;2023-04-01T00:15:55;1.20;;;0.60;;
12900;SDS011;6518;50.930;5.344;2023-04-01T00:18:22;2.50;;;1.00;;
12900;SDS011;6518;50.930;5.344;2023-04-01T00:20:50;2.77;;;0.83;;
12900;SDS011;6518;50.930;5.344;2023-04-01T00:23:18;2.50;;;0.80;;
12900;SDS011;6518;50.930;5.344;2023-04-01T00:25:45;2.73;;;0.87;;
12900;SDS011;6518;50.930;5.344;2023-04-01T00:28:13;4.20;;;0.70;;
12900;SDS011;6518;50.930;5.344;2023-04-01T00:30:41;3.63;;;0.80;;
12900;SDS011;6518;50.930;5.344;2023-04-01T00:33:08;2.37;;;0.93;;
12900;SDS011;6518;50.930;5.344;2023-04-01T00:35:35;4.70;;;1.20;;
12900;SDS011;6518;50.930;5.344;2023-04-01T00:38:01;2.43;;;0.80;;
12900;SDS011;6518;50.930;5.344;2023-04-01T00:40:29;1.90;;;0.80;;
12900;SDS011;6518;50.930;5.344;2023-04-01T00:42:58;2.07;;;0.70;;
12900;SDS011;6518;50.930;5.344;2023-04-01T00:45:27;3.03;;;1.20;;
12900;SDS011;6518;50.930;5.344;2023-04-01T00:47:58;3.80;;;1.40;;
12900;SDS011;6518;50.930;5.344;2023-04-01T00:50:28;3.30;;;0.90;;
12900;SDS011;6518;50.930;5.344;2023-04-01T00:52:56;2.80;;;0.70;;
12900;SDS011;6518;50.930;5.344;2023-04-01T00:55:24;3.40;;;1.10;;
12900;SDS011;6518;50.930;5.344;2023-04-01T00:57:54;2.30;;;0.77;;
12900;SDS011;6518;50.930;5.344;2023-04-01T01:00:23;3.40;;;0.80;;
12900;SDS011;6518;50.930;5.344;2023-04-01T01:02:50;1.97;;;0.70;;
12900;SDS011;6518;50.930;5.344;2023-04-01T01:05:19;2.93;;;1.10;;
12900;SDS011;6518;50.930;5.344;2023-04-01T01:07:56;4.83;;;1.10;;
12900;SDS011;6518;50.930;5.344;2023-04-01T01:10:29;3.00;;;1.23;;
12900;SDS011;6518;50.930;5.344;2023-04-01T01:13:01;1.73;;;0.90;;
12900;SDS011;6518;50.930;5.344;2023-04-01T01:15:36;2.87;;;1.07;;
12900;SDS011;6518;50.930;5.344;2023-04-01T01:18:09;3.03;;;1.17;;
12900;SDS011;6518;50.930;5.344;2023-04-01T01:20:55;3.00;;;1.50;;
12900;SDS011;6518;50.930;5.344;2023-04-01T01:23:46;2.60;;;1.30;;
12900;SDS011;6518;50.930;5.344;2023-04-01T01:26:40;4.17;;;1.33;;
12900;SDS011;6518;50.930;5.344;2023-04-01T01:29:26;2.97;;;1.20;;
12900;SDS011;6518;50.930;5.344;2023-04-01T01:35:16;5.07;;;1.00;;
12900;SDS011;6518;50.930;5.344;2023-04-01T01:37:49;3.70;;;1.07;;
12900;SDS011;6518;50.930;5.344;2023-04-01T01:40:18;3.53;;;1.13;;
12900;SDS011;6518;50.930;5.344;2023-04-01T01:42:47;3.50;;;0.80;;
12900;SDS011;6518;50.930;5.344;2023-04-01T01:45:16;4.50;;;1.03;;
12900;SDS011;6518;50.930;5.344;2023-04-01T01:47:46;2.90;;;1.03;;
12900;SDS011;6518;50.930;5.344;2023-04-01T01:50:17;2.57;;;0.90;;
12900;SDS011;6518;50.930;5.344;2023-04-01T01:52:45;4.47;;;1.17;;
12900;SDS011;6518;50.930;5.344;2023-04-01T01:55:26;2.93;;;0.80;;
12900;SDS011;6518;50.930;5.344;2023-04-01T01:57:54;4.37;;;0.93;;
12900;SDS011;6518;50.930;5.344;2023-04-01T02:00:23;2.20;;;0.87;;
12900;SDS011;6518;50.930;5.344;2023-04-01T02:02:50;3.00;;;0.83;;
12900;SDS011;6518;50.930;5.344;2023-04-01T02:05:19;2.90;;;0.90;;
12900;SDS011;6518;50.930;5.344;2023-04-01T02:07:49;2.60;;;0.87;;
12900;SDS011;6518;50.930;5.344;2023-04-01T02:10:22;3.00;;;0.93;;
12900;SDS011;6518;50.930;5.344;2023-04-01T02:12:53;2.40;;;0.93;;
12900;SDS011;6518;50.930;5.344;2023-04-01T02:15:25;1.40;;;0.90;;
12900;SDS011;6518;50.930;5.344;2023-04-01T02:17:56;2.40;;;0.90;;
12900;SDS011;6518;50.930;5.344;2023-04-01T02:20:24;3.43;;;1.07;;
12900;SDS011;6518;50.930;5.344;2023-04-01T02:22:53;2.53;;;1.30;;
12900;SDS011;6518;50.930;5.344;2023-04-01T02:25:23;2.20;;;0.90;;
12900;SDS011;6518;50.930;5.344;2023-04-01T02:27:52;2.37;;;1.03;;
12900;SDS011;6518;50.930;5.344;2023-04-01T02:30:22;1.23;;;0.90;;
12900;SDS011;6518;50.930;5.344;2023-04-01T02:32:50;2.83;;;1.10;;
12900;SDS011;6518;50.930;5.344;2023-04-01T02:35:17;1.23;;;0.90;;
12900;SDS011;6518;50.930;5.344;2023-04-01T02:37:46;1.60;;;0.80;;
12900;SDS011;6518;50.930;5.344;2023-04-01T02:40:15;2.40;;;0.90;;
12900;SDS011;6518;50.930;5.344;2023-04-01T02:42:43;2.23;;;1.17;;
12900;SDS011;6518;50.930;5.344;2023-04-01T02:45:11;1.37;;;1.00;;
12900;SDS011;6518;50.930;5.344;2023-04-01T02:47:39;2.07;;;1.20;;
12900;SDS011;6518;50.930;5.344;2023-04-01T02:50:06;2.40;;;1.33;;
12900;SDS011;6518;50.930;5.344;2023-04-01T02:52:33;1.50;;;1.07;;
12900;SDS011;6518;50.930;5.344;2023-04-01T02:55:02;1.80;;;1.37;;
12900;SDS011;6518;50.930;5.344;2023-04-01T02:57:29;2.03;;;1.20;;
12900;SDS011;6518;50.930;5.344;2023-04-01T02:59:56;4.00;;;1.20;;
12900;SDS011;6518;50.930;5.344;2023-04-01T03:02:23;2.70;;;1.10;;
12900;SDS011;6518;50.930;5.344;2023-04-01T03:04:49;2.70;;;1.20;;
12900;SDS011;6518;50.930;5.344;2023-04-01T03:07:16;2.53;;;1.10;;
12900;SDS011;6518;50.930;5.344;2023-04-01T03:09:43;1.50;;;1.00;;
12900;SDS011;6518;50.930;5.344;2023-04-01T03:12:11;1.57;;;0.90;;
12900;SDS011;6518;50.930;5.344;2023-04-01T03:14:38;2.83;;;1.43;;
12900;SDS011;6518;50.930;5.344;2023-04-01T03:17:05;1.47;;;1.00;;
12900;SDS011;6518;50.930;5.344;2023-04-01T03:19:32;1.53;;;1.17;;
12900;SDS011;6518;50.930;5.344;2023-04-01T03:21:58;2.80;;;1.20;;
12900;SDS011;6518;50.930;5.344;2023-04-01T03:24:25;2.07;;;1.40;;
12900;SDS011;6518;50.930;5.344;2023-04-01T03:26:52;3.00;;;1.40;;
12900;SDS011;6518;50.930;5.344;2023-04-01T03:29:20;1.17;;;0.90;;
12900;SDS011;6518;50.930;5.344;2023-04-01T03:31:47;2.43;;;1.27;;
12900;SDS011;6518;50.930;5.344;2023-04-01T03:34:13;1.30;;;1.00;;
12900;SDS011;6518;50.930;5.344;2023-04-01T03:36:40;1.30;;;0.90;;
12900;SDS011;6518;50.930;5.344;2023-04-01T03:39:07;1.87;;;1.17;;
12900;SDS011;6518;50.930;5.344;2023-04-01T03:41:36;2.43;;;0.97;;
12900;SDS011;6518;50.930;5.344;2023-04-01T03:44:03;2.03;;;1.40;;
12900;SDS011;6518;50.930;5.344;2023-04-01T03:46:31;3.27;;;1.60;;
12900;SDS011;6518;50.930;5.344;2023-04-01T03:48:58;3.77;;;1.53;;
12900;SDS011;6518;50.930;5.344;2023-04-01T03:51:25;4.50;;;1.47;;
12900;SDS011;6518;50.930;5.344;2023-04-01T03:53:52;2.17;;;1.53;;
12900;SDS011;6518;50.930;5.344;2023-04-01T03:56:18;3.40;;;1.70;;
12900;SDS011;6518;50.930;5.344;2023-04-01T03:58:45;1.93;;;1.43;;
12900;SDS011;6518;50.930;5.344;2023-04-01T04:01:16;3.43;;;1.90;;
12900;SDS011;6518;50.930;5.344;2023-04-01T04:03:45;3.53;;;1.83;;
12900;SDS011;6518;50.930;5.344;2023-04-01T04:06:12;4.63;;;2.00;;
12900;SDS011;6518;50.930;5.344;2023-04-01T04:08:40;1.97;;;1.77;;
12900;SDS011;6518;50.930;5.344;2023-04-01T04:11:07;3.73;;;1.90;;
12900;SDS011;6518;50.930;5.344;2023-04-01T04:13:34;5.23;;;2.30;;
12900;SDS011;6518;50.930;5.344;2023-04-01T04:16:01;4.03;;;1.90;;
12900;SDS011;6518;50.930;5.344;2023-04-01T04:18:28;2.60;;;1.90;;
12900;SDS011;6518;50.930;5.344;2023-04-01T04:20:56;3.57;;;1.90;;
12900;SDS011;6518;50.930;5.344;2023-04-01T04:23:23;3.70;;;1.80;;
12900;SDS011;6518;50.930;5.344;2023-04-01T04:25:54;2.60;;;1.50;;
12900;SDS011;6518;50.930;5.344;2023-04-01T04:28:22;2.97;;;1.60;;
12900;SDS011;6518;50.930;5.344;2023-04-01T04:30:49;4.97;;;1.90;;
12900;SDS011;6518;50.930;5.344;2023-04-01T04:33:16;2.53;;;1.90;;
12900;SDS011;6518;50.930;5.344;2023-04-01T04:35:43;3.13;;;1.90;;
12900;SDS011;6518;50.930;5.344;2023-04-01T04:38:11;6.63;;;2.50;;
12900;SDS011;6518;50.930;5.344;2023-04-01T04:40:38;2.77;;;2.13;;
12900;SDS011;6518;50.930;5.344;2023-04-01T04:43:06;3.77;;;2.13;;
12900;SDS011;6518;50.930;5.344;2023-04-01T04:45:33;2.87;;;2.20;;
12900;SDS011;6518;50.930;5.344;2023-04-01T04:48:00;3.70;;;2.43;;
12900;SDS011;6518;50.930;5.344;2023-04-01T04:50:26;4.17;;;2.87;;
12900;SDS011;6518;50.930;5.344;2023-04-01T04:52:53;5.83;;;3.30;;
12900;SDS011;6518;50.930;5.344;2023-04-01T04:55:21;7.60;;;2.80;;
12900;SDS011;6518;50.930;5.344;2023-04-01T04:57:48;6.57;;;3.30;;
12900;SDS011;6518;50.930;5.344;2023-04-01T05:00:15;7.60;;;3.53;;
12900;SDS011;6518;50.930;5.344;2023-04-01T05:02:42;5.53;;;3.50;;
12900;SDS011;6518;50.930;5.344;2023-04-01T05:05:09;7.20;;;3.63;;
12900;SDS011;6518;50.930;5.344;2023-04-01T05:07:36;6.70;;;3.67;;
12900;SDS011;6518;50.930;5.344;2023-04-01T05:10:03;7.50;;;4.60;;
12900;SDS011;6518;50.930;5.344;2023-04-01T05:12:32;7.17;;;4.20;;
12900;SDS011;6518;50.930;5.344;2023-04-01T05:15:01;9.30;;;4.37;;
12900;SDS011;6518;50.930;5.344;2023-04-01T05:17:28;9.43;;;4.03;;
12900;SDS011;6518;50.930;5.344;2023-04-01T05:19:55;8.50;;;4.33;;
12900;SDS011;6518;50.930;5.344;2023-04-01T05:22:22;6.83;;;4.67;;
12900;SDS011;6518;50.930;5.344;2023-04-01T05:24:49;6.93;;;4.57;;
12900;SDS011;6518;50.930;5.344;2023-04-01T05:27:16;10.80;;;4.87;;
12900;SDS011;6518;50.930;5.344;2023-04-01T05:29:44;8.00;;;4.87;;
12900;SDS011;6518;50.930;5.344;2023-04-01T05:32:11;7.30;;;3.87;;
12900;SDS011;6518;50.930;5.344;2023-04-01T05:34:38;7.73;;;4.73;;
12900;SDS011;6518;50.930;5.344;2023-04-01T05:37:05;7.23;;;4.77;;
12900;SDS011;6518;50.930;5.344;2023-04-01T05:39:35;8.90;;;4.40;;
12900;SDS011;6518;50.930;5.344;2023-04-01T05:42:02;9.07;;;4.53;;
12900;SDS011;6518;50.930;5.344;2023-04-01T05:44:31;7.73;;;4.50;;
12900;SDS011;6518;50.930;5.344;2023-04-01T05:46:59;6.47;;;4.27;;
12900;SDS011;6518;50.930;5.344;2023-04-01T05:49:26;5.87;;;3.80;;
12900;SDS011;6518;50.930;5.344;2023-04-01T05:51:53;7.17;;;3.80;;
12900;SDS011;6518;50.930;5.344;2023-04-01T05:54:20;9.03;;;4.53;;
12900;SDS011;6518;50.930;5.344;2023-04-01T05:56:47;4.53;;;3.60;;
12900;SDS011;6518;50.930;5.344;2023-04-01T05:59:14;4.73;;;3.33;;
12900;SDS011;6518;50.930;5.344;2023-04-01T06:01:41;5.73;;;3.73;;
12900;SDS011;6518;50.930;5.344;2023-04-01T06:04:11;5.73;;;3.97;;
12900;SDS011;6518;50.930;5.344;2023-04-01T06:06:41;5.07;;;3.20;;
12900;SDS011;6518;50.930;5.344;2023-04-01T06:09:12;4.10;;;3.20;;
12900;SDS011;6518;50.930;5.344;2023-04-01T06:11:44;3.63;;;3.20;;
12900;SDS011;6518;50.930;5.344;2023-04-01T06:14:23;5.27;;;3.03;;
12900;SDS011;6518;50.930;5.344;2023-04-01T06:17:01;3.80;;;2.37;;
12900;SDS011;6518;50.930;5.344;2023-04-01T06:19:52;8.63;;;3.23;;
12900;SDS011;6518;50.930;5.344;2023-04-01T06:22:37;2.73;;;2.27;;
12900;SDS011;6518;50.930;5.344;2023-04-01T06:25:42;2.83;;;2.20;;
12900;SDS011;6518;50.930;5.344;2023-04-01T06:28:29;3.80;;;2.30;;
12900;SDS011;6518;50.930;5.344;2023-04-01T06:31:18;3.07;;;2.20;;
12900;SDS011;6518;50.930;5.344;2023-04-01T06:33:55;2.60;;;2.23;;
12900;SDS011;6518;50.930;5.344;2023-04-01T06:36:39;3.27;;;2.33;;
12900;SDS011;6518;50.930;5.344;2023-04-01T06:39:22;2.60;;;2.37;;
12900;SDS011;6518;50.930;5.344;2023-04-01T06:42:08;2.97;;;2.60;;
12900;SDS011;6518;50.930;5.344;2023-04-01T06:44:46;3.23;;;2.20;;
12900;SDS011;6518;50.930;5.344;2023-04-01T06:47:25;3.27;;;2.50;;
12900;SDS011;6518;50.930;5.344;2023-04-01T06:50:00;1.97;;;1.77;;
12900;SDS011;6518;50.930;5.344;2023-04-01T06:52:37;2.70;;;1.83;;
12900;SDS011;6518;50.930;5.344;2023-04-01T06:55:17;2.40;;;1.80;;
12900;SDS011;6518;50.930;5.344;2023-04-01T06:57:52;2.47;;;1.87;;
12900;SDS011;6518;50.930;5.344;2023-04-01T07:00:22;1.97;;;1.37;;
12900;SDS011;6518;50.930;5.344;2023-04-01T07:02:57;2.10;;;1.30;;
12900;SDS011;6518;50.930;5.344;2023-04-01T07:05:31;1.10;;;1.00;;
12900;SDS011;6518;50.930;5.344;2023-04-01T07:08:01;1.07;;;0.87;;
12900;SDS011;6518;50.930;5.344;2023-04-01T07:10:33;1.33;;;1.03;;
12900;SDS011;6518;50.930;5.344;2023-04-01T07:13:10;1.97;;;1.27;;
12900;SDS011;6518;50.930;5.344;2023-04-01T07:15:42;1.67;;;1.00;;
12900;SDS011;6518;50.930;5.344;2023-04-01T07:18:22;0.90;;;0.80;;
12900;SDS011;6518;50.930;5.344;2023-04-01T07:20:56;1.10;;;1.00;;
12900;SDS011;6518;50.930;5.344;2023-04-01T07:23:26;1.03;;;0.80;;
12900;SDS011;6518;50.930;5.344;2023-04-01T07:25:58;1.10;;;0.90;;
12900;SDS011;6518;50.930;5.344;2023-04-01T07:28:29;1.00;;;0.80;;
12900;SDS011;6518;50.930;5.344;2023-04-01T07:30:59;1.00;;;0.90;;
12900;SDS011;6518;50.930;5.344;2023-04-01T07:33:33;1.53;;;1.10;;
12900;SDS011;6518;50.930;5.344;2023-04-01T07:36:06;2.03;;;1.10;;
12900;SDS011;6518;50.930;5.344;2023-04-01T07:38:42;1.50;;;1.10;;
12900;SDS011;6518;50.930;5.344;2023-04-01T07:41:21;1.37;;;1.27;;
12900;SDS011;6518;50.930;5.344;2023-04-01T07:43:55;2.03;;;1.27;;
12900;SDS011;6518;50.930;5.344;2023-04-01T07:46:38;0.63;;;0.63;;
12900;SDS011;6518;50.930;5.344;2023-04-01T07:49:25;0.83;;;0.60;;
12900;SDS011;6518;50.930;5.344;2023-04-01T07:51:58;1.00;;;0.90;;
12900;SDS011;6518;50.930;5.344;2023-04-01T07:54:31;2.20;;;0.73;;
12900;SDS011;6518;50.930;5.344;2023-04-01T07:57:03;1.33;;;1.00;;
12900;SDS011;6518;50.930;5.344;2023-04-01T07:59:35;1.27;;;0.80;;
12900;SDS011;6518;50.930;5.344;2023-04-01T08:02:12;2.07;;;0.87;;
12900;SDS011;6518;50.930;5.344;2023-04-01T08:04:51;1.83;;;1.00;;
12900;SDS011;6518;50.930;5.344;2023-04-01T08:07:28;2.03;;;1.10;;
12900;SDS011;6518;50.930;5.344;2023-04-01T08:10:04;1.30;;;0.90;;
12900;SDS011;6518;50.930;5.344;2023-04-01T08:12:42;1.57;;;1.00;;
12900;SDS011;6518;50.930;5.344;2023-04-01T08:15:20;1.13;;;1.03;;
12900;SDS011;6518;50.930;5.344;2023-04-01T08:17:58;1.37;;;1.00;;
12900;SDS011;6518;50.930;5.344;2023-04-01T08:20:34;1.77;;;1.10;;
12900;SDS011;6518;50.930;5.344;2023-04-01T08:23:06;1.60;;;1.00;;
12900;SDS011;6518;50.930;5.344;2023-04-01T08:25:42;3.43;;;1.10;;
12900;SDS011;6518;50.930;5.344;2023-04-01T08:28:16;1.20;;;1.00;;
12900;SDS011;6518;50.930;5.344;2023-04-01T08:30:47;1.10;;;1.00;;
12900;SDS011;6518;50.930;5.344;2023-04-01T08:33:19;1.47;;;1.10;;
12900;SDS011;6518;50.930;5.344;2023-04-01T08:35:50;1.47;;;1.37;;
12900;SDS011;6518;50.930;5.344;2023-04-01T08:38:23;2.40;;;1.70;;
12900;SDS011;6518;50.930;5.344;2023-04-01T08:41:00;2.53;;;1.83;;
12900;SDS011;6518;50.930;5.344;2023-04-01T08:43:42;1.70;;;1.60;;
12900;SDS011;6518;50.930;5.344;2023-04-01T08:46:34;1.73;;;1.60;;
12900;SDS011;6518;50.930;5.344;2023-04-01T08:49:35;1.67;;;1.40;;
12900;SDS011;6518;50.930;5.344;2023-04-01T08:52:27;2.80;;;1.20;;
12900;SDS011;6518;50.930;5.344;2023-04-01T08:55:04;2.10;;;1.67;;
12900;SDS011;6518;50.930;5.344;2023-04-01T08:58:07;2.40;;;1.73;;
12900;SDS011;6518;50.930;5.344;2023-04-01T09:01:09;2.43;;;1.47;;
12900;SDS011;6518;50.930;5.344;2023-04-01T09:06:52;2.03;;;1.83;;
12900;SDS011;6518;50.930;5.344;2023-04-01T09:12:52;2.53;;;1.50;;
12900;SDS011;6518;50.930;5.344;2023-04-01T09:15:49;1.30;;;1.20;;
12900;SDS011;6518;50.930;5.344;2023-04-01T09:18:41;1.70;;;1.20;;
12900;SDS011;6518;50.930;5.344;2023-04-01T09:24:33;3.00;;;1.30;;
12900;SDS011;6518;50.930;5.344;2023-04-01T09:27:10;1.50;;;1.30;;
12900;SDS011;6518;50.930;5.344;2023-04-01T09:29:56;2.50;;;1.10;;
12900;SDS011;6518;50.930;5.344;2023-04-01T09:32:56;1.97;;;1.20;;
12900;SDS011;6518;50.930;5.344;2023-04-01T09:35:55;2.10;;;1.47;;
12900;SDS011;6518;50.930;5.344;2023-04-01T09:38:30;1.80;;;1.40;;
12900;SDS011;6518;50.930;5.344;2023-04-01T09:41:06;1.60;;;1.50;;
12900;SDS011;6518;50.930;5.344;2023-04-01T09:43:44;1.30;;;1.10;;
12900;SDS011;6518;50.930;5.344;2023-04-01T09:46:26;1.90;;;1.30;;
12900;SDS011;6518;50.930;5.344;2023-04-01T09:52:08;2.17;;;1.07;;
12900;SDS011;6518;50.930;5.344;2023-04-01T09:54:51;1.10;;;1.00;;
12900;SDS011;6518;50.930;5.344;2023-04-01T10:00:44;0.83;;;0.80;;
12900;SDS011;6518;50.930;5.344;2023-04-01T10:03:49;1.87;;;0.90;;
12900;SDS011;6518;50.930;5.344;2023-04-01T10:18:54;1.53;;;1.30;;
12900;SDS011;6518;50.930;5.344;2023-04-01T10:27:32;2.03;;;1.60;;
12900;SDS011;6518;50.930;5.344;2023-04-01T10:30:15;1.47;;;1.37;;
12900;SDS011;6518;50.930;5.344;2023-04-01T10:33:19;1.30;;;1.20;;
12900;SDS011;6518;50.930;5.344;2023-04-01T10:36:14;1.67;;;1.57;;
12900;SDS011;6518;50.930;5.344;2023-04-01T10:39:17;1.60;;;1.30;;
12900;SDS011;6518;50.930;5.344;2023-04-01T10:42:14;1.93;;;1.73;;
12900;SDS011;6518;50.930;5.344;2023-04-01T10:45:18;1.60;;;1.50;;
12900;SDS011;6518;50.930;5.344;2023-04-01T10:48:12;1.70;;;1.40;;
12900;SDS011;6518;50.930;5.344;2023-04-01T10:51:01;2.70;;;1.77;;
12900;SDS011;6518;50.930;5.344;2023-04-01T10:53:40;2.73;;;2.00;;
12900;SDS011;6518;50.930;5.344;2023-04-01T10:56:28;2.13;;;1.93;;
12900;SDS011;6518;50.930;5.344;2023-04-01T11:05:26;2.37;;;2.17;;
12900;SDS011;6518;50.930;5.344;2023-04-01T11:08:29;3.80;;;2.20;;
12900;SDS011;6518;50.930;5.344;2023-04-01T11:11:25;2.93;;;1.90;;
12900;SDS011;6518;50.930;5.344;2023-04-01T11:17:20;2.50;;;2.30;;
12900;SDS011;6518;50.930;5.344;2023-04-01T11:20:25;3.10;;;2.80;;
12900;SDS011;6518;50.930;5.344;2023-04-01T11:23:13;3.43;;;3.10;;
12900;SDS011;6518;50.930;5.344;2023-04-01T11:25:55;3.97;;;3.63;;
12900;SDS011;6518;50.930;5.344;2023-04-01T11:28:44;5.20;;;4.37;;
12900;SDS011;6518;50.930;5.344;2023-04-01T11:31:29;4.10;;;3.70;;
12900;SDS011;6518;50.930;5.344;2023-04-01T11:34:10;5.00;;;4.60;;
12900;SDS011;6518;50.930;5.344;2023-04-01T11:36:46;6.73;;;4.90;;
12900;SDS011;6518;50.930;5.344;2023-04-01T11:39:27;5.17;;;4.67;;
12900;SDS011;6518;50.930;5.344;2023-04-01T11:42:01;5.77;;;4.83;;
12900;SDS011;6518;50.930;5.344;2023-04-01T11:44:43;5.47;;;4.50;;
12900;SDS011;6518;50.930;5.344;2023-04-01T11:47:28;5.83;;;5.23;;
12900;SDS011;6518;50.930;5.344;2023-04-01T11:50:15;7.33;;;5.03;;
12900;SDS011;6518;50.930;5.344;2023-04-01T11:52:57;7.07;;;5.20;;
12900;SDS011;6518;50.930;5.344;2023-04-01T11:55:45;6.47;;;5.60;;
12900;SDS011;6518;50.930;5.344;2023-04-01T11:58:26;6.43;;;5.43;;
12900;SDS011;6518;50.930;5.344;2023-04-01T12:01:12;7.37;;;6.23;;
12900;SDS011;6518;50.930;5.344;2023-04-01T12:04:00;6.63;;;5.63;;
12900;SDS011;6518;50.930;5.344;2023-04-01T12:06:53;7.60;;;5.67;;
12900;SDS011;6518;50.930;5.344;2023-04-01T12:09:33;6.37;;;5.77;;
12900;SDS011;6518;50.930;5.344;2023-04-01T12:12:11;7.30;;;5.73;;
12900;SDS011;6518;50.930;5.344;2023-04-01T12:14:45;5.40;;;4.90;;
12900;SDS011;6518;50.930;5.344;2023-04-01T12:17:27;4.13;;;3.73;;
12900;SDS011;6518;50.930;5.344;2023-04-01T12:20:01;3.30;;;2.83;;
12900;SDS011;6518;50.930;5.344;2023-04-01T12:22:49;3.50;;;2.50;;
12900;SDS011;6518;50.930;5.344;2023-04-01T12:25:27;2.30;;;2.10;;
12900;SDS011;6518;50.930;5.344;2023-04-01T12:28:10;2.63;;;2.10;;
12900;SDS011;6518;50.930;5.344;2023-04-01T12:30:48;1.87;;;1.37;;
12900;SDS011;6518;50.930;5.344;2023-04-01T12:33:24;2.53;;;1.53;;
12900;SDS011;6518;50.930;5.344;2023-04-01T12:36:18;1.97;;;1.80;;
12900;SDS011;6518;50.930;5.344;2023-04-01T12:38:58;2.20;;;2.00;;
12900;SDS011;6518;50.930;5.344;2023-04-01T12:42:01;2.60;;;2.40;;
12900;SDS011;6518;50.930;5.344;2023-04-01T12:44:38;3.57;;;3.27;;
12900;SDS011;6518;50.930;5.344;2023-04-01T12:47:26;4.67;;;3.07;;
12900;SDS011;6518;50.930;5.344;2023-04-01T12:50:16;3.37;;;3.07;;
12900;SDS011;6518;50.930;5.344;2023-04-01T12:52:57;4.10;;;3.70;;
12900;SDS011;6518;50.930;5.344;2023-04-01T12:55:38;4.20;;;3.80;;
12900;SDS011;6518;50.930;5.344;2023-04-01T12:58:27;4.23;;;3.83;;
12900;SDS011;6518;50.930;5.344;2023-04-01T13:01:17;5.30;;;4.27;;
12900;SDS011;6518;50.930;5.344;2023-04-01T13:06:57;5.73;;;4.90;;
12900;SDS011;6518;50.930;5.344;2023-04-01T13:09:45;5.73;;;4.90;;
12900;SDS011;6518;50.930;5.344;2023-04-01T13:12:23;6.00;;;5.40;;
12900;SDS011;6518;50.930;5.344;2023-04-01T13:18:03;5.63;;;4.37;;
12900;SDS011;6518;50.930;5.344;2023-04-01T13:20:43;3.90;;;3.50;;
12900;SDS011;6518;50.930;5.344;2023-04-01T13:23:19;5.23;;;3.53;;
12900;SDS011;6518;50.930;5.344;2023-04-01T13:26:00;4.03;;;3.63;;
12900;SDS011;6518;50.930;5.344;2023-04-01T13:28:37;4.47;;;3.40;;
12900;SDS011;6518;50.930;5.344;2023-04-01T13:31:09;3.70;;;3.40;;
12900;SDS011;6518;50.930;5.344;2023-04-01T13:33:47;4.10;;;3.50;;
12900;SDS011;6518;50.930;5.344;2023-04-01T13:36:26;5.27;;;3.70;;
12900;SDS011;6518;50.930;5.344;2023-04-01T13:39:04;4.63;;;3.87;;
12900;SDS011;6518;50.930;5.344;2023-04-01T13:41:52;4.80;;;3.60;;
12900;SDS011;6518;50.930;5.344;2023-04-01T13:44:28;4.00;;;3.63;;
12900;SDS011;6518;50.930;5.344;2023-04-01T13:49:57;4.33;;;3.93;;
12900;SDS011;6518;50.930;5.344;2023-04-01T13:52:40;4.90;;;4.07;;
12900;SDS011;6518;50.930;5.344;2023-04-01T13:55:35;5.03;;;4.53;;
12900;SDS011;6518;50.930;5.344;2023-04-01T14:01:12;4.23;;;3.83;;
12900;SDS011;6518;50.930;5.344;2023-04-01T14:03:55;5.87;;;5.20;;
12900;SDS011;6518;50.930;5.344;2023-04-01T14:06:47;5.30;;;4.73;;
12900;SDS011;6518;50.930;5.344;2023-04-01T14:09:28;5.47;;;4.50;;
12900;SDS011;6518;50.930;5.344;2023-04-01T14:12:21;5.03;;;4.53;;
12900;SDS011;6518;50.930;5.344;2023-04-01T14:15:05;3.93;;;3.33;;
12900;SDS011;6518;50.930;5.344;2023-04-01T14:17:50;2.57;;;2.13;;
12900;SDS011;6518;50.930;5.344;2023-04-01T14:20:32;2.53;;;2.17;;
12900;SDS011;6518;50.930;5.344;2023-04-01T14:23:13;2.20;;;2.00;;
12900;SDS011;6518;50.930;5.344;2023-04-01T14:26:07;2.77;;;2.10;;
12900;SDS011;6518;50.930;5.344;2023-04-01T14:28:47;2.10;;;1.90;;
12900;SDS011;6518;50.930;5.344;2023-04-01T14:31:34;2.53;;;1.90;;
12900;SDS011;6518;50.930;5.344;2023-04-01T14:34:17;2.30;;;2.07;;
12900;SDS011;6518;50.930;5.344;2023-04-01T14:37:01;3.27;;;2.10;;
12900;SDS011;6518;50.930;5.344;2023-04-01T14:45:49;2.10;;;1.90;;
12900;SDS011;6518;50.930;5.344;2023-04-01T14:48:27;1.60;;;1.50;;
12900;SDS011;6518;50.930;5.344;2023-04-01T14:51:02;2.10;;;1.90;;
12900;SDS011;6518;50.930;5.344;2023-04-01T14:53:38;2.83;;;1.87;;
12900;SDS011;6518;50.930;5.344;2023-04-01T14:56:10;1.80;;;1.70;;
12900;SDS011;6518;50.930;5.344;2023-04-01T14:58:42;2.03;;;1.90;;
12900;SDS011;6518;50.930;5.344;2023-04-01T15:01:13;1.60;;;1.40;;
12900;SDS011;6518;50.930;5.344;2023-04-01T15:04:01;1.40;;;1.30;;
12900;SDS011;6518;50.930;5.344;2023-04-01T15:06:41;1.40;;;1.23;;
12900;SDS011;6518;50.930;5.344;2023-04-01T15:09:24;1.60;;;1.50;;
12900;SDS011;6518;50.930;5.344;2023-04-01T15:12:04;1.50;;;1.40;;
12900;SDS011;6518;50.930;5.344;2023-04-01T15:14:51;1.67;;;1.40;;
12900;SDS011;6518;50.930;5.344;2023-04-01T15:17:36;1.87;;;1.50;;
12900;SDS011;6518;50.930;5.344;2023-04-01T15:23:21;1.60;;;1.50;;
12900;SDS011;6518;50.930;5.344;2023-04-01T15:26:05;2.10;;;1.80;;
12900;SDS011;6518;50.930;5.344;2023-04-01T15:28:42;2.27;;;1.80;;
12900;SDS011;6518;50.930;5.344;2023-04-01T15:31:16;1.90;;;1.80;;
12900;SDS011;6518;50.930;5.344;2023-04-01T15:33:55;2.43;;;1.73;;
12900;SDS011;6518;50.930;5.344;2023-04-01T15:36:37;3.30;;;2.07;;
12900;SDS011;6518;50.930;5.344;2023-04-01T15:39:12;2.37;;;2.00;;
12900;SDS011;6518;50.930;5.344;2023-04-01T15:41:45;2.07;;;1.80;;
12900;SDS011;6518;50.930;5.344;2023-04-01T15:44:43;2.73;;;1.93;;
12900;SDS011;6518;50.930;5.344;2023-04-01T15:47:27;2.43;;;2.13;;
12900;SDS011;6518;50.930;5.344;2023-04-01T15:50:04;3.80;;;2.60;;
12900;SDS011;6518;50.930;5.344;2023-04-01T15:52:49;3.27;;;2.40;;
12900;SDS011;6518;50.930;5.344;2023-04-01T15:55:23;2.40;;;2.20;;
12900;SDS011;6518;50.930;5.344;2023-04-01T15:58:03;2.30;;;2.10;;
12900;SDS011;6518;50.930;5.344;2023-04-01T16:00:44;2.93;;;2.20;;
12900;SDS011;6518;50.930;5.344;2023-04-01T16:03:20;2.20;;;2.00;;
12900;SDS011;6518;50.930;5.344;2023-04-01T16:06:09;2.80;;;2.07;;
12900;SDS011;6518;50.930;5.344;2023-04-01T16:08:54;3.63;;;1.80;;
12900;SDS011;6518;50.930;5.344;2023-04-01T16:11:41;1.83;;;1.50;;
12900;SDS011;6518;50.930;5.344;2023-04-01T16:14:21;1.93;;;1.80;;
12900;SDS011;6518;50.930;5.344;2023-04-01T16:17:03;3.17;;;2.20;;
12900;SDS011;6518;50.930;5.344;2023-04-01T16:19:37;2.10;;;1.60;;
12900;SDS011;6518;50.930;5.344;2023-04-01T16:22:16;1.87;;;1.60;;
12900;SDS011;6518;50.930;5.344;2023-04-01T16:24:48;2.07;;;1.80;;
12900;SDS011;6518;50.930;5.344;2023-04-01T16:27:24;2.40;;;2.20;;
12900;SDS011;6518;50.930;5.344;2023-04-01T16:29:57;2.50;;;1.73;;
12900;SDS011;6518;50.930;5.344;2023-04-01T16:32:33;2.40;;;2.20;;
12900;SDS011;6518;50.930;5.344;2023-04-01T16:35:15;2.33;;;2.00;;
12900;SDS011;6518;50.930;5.344;2023-04-01T16:37:49;2.00;;;1.80;;
12900;SDS011;6518;50.930;5.344;2023-04-01T16:40:22;2.13;;;1.93;;
12900;SDS011;6518;50.930;5.344;2023-04-01T16:43:04;2.83;;;2.10;;
12900;SDS011;6518;50.930;5.344;2023-04-01T16:45:39;4.70;;;1.80;;
12900;SDS011;6518;50.930;5.344;2023-04-01T16:48:11;2.53;;;1.53;;
12900;SDS011;6518;50.930;5.344;2023-04-01T16:50:46;2.50;;;1.90;;
12900;SDS011;6518;50.930;5.344;2023-04-01T16:53:19;3.17;;;2.47;;
12900;SDS011;6518;50.930;5.344;2023-04-01T16:55:57;3.70;;;2.63;;
12900;SDS011;6518;50.930;5.344;2023-04-01T16:58:34;3.43;;;3.00;;
12900;SDS011;6518;50.930;5.344;2023-04-01T17:01:05;3.70;;;3.30;;
12900;SDS011;6518;50.930;5.344;2023-04-01T17:03:38;3.90;;;3.50;;